createdAt,value
2018-01-11T00:00:46.116Z,19.27
2018-01-11T00:03:15.039Z,18.50
2018-01-11T00:05:45.660Z,24.25
2018-01-11T00:08:13.445Z,19.73
2018-01-11T00:10:42.202Z,19.25
2018-01-11T00:13:11.506Z,19.67
2018-01-11T00:15:41.226Z,20.52
2018-01-11T00:18:13.247Z,17.87
2018-01-11T00:20:42.046Z,21.30
2018-01-11T00:23:12.180Z,16.60
2018-01-11T00:25:40.215Z,20.33
2018-01-11T00:28:08.594Z,14.90
2018-01-11T00:30:37.588Z,17.25
2018-01-11T00:33:05.376Z,17.55
2018-01-11T00:35:33.347Z,17.02
2018-01-11T00:38:00.979Z,22.15
2018-01-11T00:40:28.903Z,16.77
2018-01-11T00:42:56.870Z,14.50
2018-01-11T00:45:24.446Z,16.02
2018-01-11T00:47:52.012Z,21.92
2018-01-11T00:50:19.938Z,18.20
2018-01-11T00:52:47.654Z,17.20
2018-01-11T00:55:15.223Z,17.98
2018-01-11T00:57:42.801Z,20.05
2018-01-11T01:00:10.570Z,20.83
2018-01-11T01:02:38.183Z,23.42
2018-01-11T01:05:05.762Z,31.23
2018-01-11T01:07:34.249Z,22.37
2018-01-11T01:10:01.871Z,25.30
2018-01-11T01:12:29.407Z,22.77
2018-01-11T01:14:57.278Z,18.92
2018-01-11T01:17:24.836Z,20.52
2018-01-11T01:19:52.408Z,23.40
2018-01-11T01:22:21.365Z,20.62
2018-01-11T01:24:49.147Z,17.55
2018-01-11T01:27:16.744Z,23.58
2018-01-11T01:29:44.573Z,19.27
2018-01-11T01:32:12.439Z,18.67
2018-01-11T01:34:40.196Z,13.82
2018-01-11T01:37:07.746Z,20.50
2018-01-11T01:39:35.545Z,16.67
2018-01-11T01:42:03.335Z,18.52
2018-01-11T01:44:30.925Z,21.08
2018-01-11T01:46:58.531Z,20.52
2018-01-11T01:49:26.281Z,23.80
2018-01-11T01:51:54.059Z,19.98
2018-01-11T01:54:21.676Z,19.77
2018-01-11T01:56:49.679Z,15.25
2018-01-11T01:59:17.295Z,18.85
2018-01-11T02:01:44.925Z,16.48
2018-01-11T02:04:12.532Z,15.30
2018-01-11T02:06:40.080Z,15.82
2018-01-11T02:09:07.682Z,14.65
2018-01-11T02:11:35.413Z,15.15
2018-01-11T02:14:03.176Z,9.35
2018-01-11T02:16:30.775Z,13.68
2018-01-11T02:18:58.537Z,15.05
2018-01-11T02:21:26.117Z,12.43
2018-01-11T02:23:53.728Z,14.35
2018-01-11T02:26:21.330Z,12.88
2018-01-11T02:28:50.236Z,13.90
2018-01-11T02:31:17.835Z,14.98
2018-01-11T02:33:45.390Z,16.17
2018-01-11T02:36:12.917Z,8.77
2018-01-11T02:38:40.522Z,12.15
2018-01-11T02:41:08.431Z,10.60
2018-01-11T02:43:35.974Z,9.90
2018-01-11T02:46:03.571Z,11.90
2018-01-11T02:48:31.675Z,10.38
2018-01-11T02:50:59.268Z,12.35
2018-01-11T02:53:27.006Z,15.23
2018-01-11T02:55:54.560Z,17.52
2018-01-11T02:58:22.159Z,21.17
2018-01-11T03:00:49.754Z,20.00
2018-01-11T03:03:17.318Z,20.92
2018-01-11T03:05:45.139Z,21.92
2018-01-11T03:08:12.748Z,16.90
2018-01-11T03:10:40.311Z,17.52
2018-01-11T03:13:07.862Z,15.85
2018-01-11T03:15:35.485Z,17.80
2018-01-11T03:18:03.311Z,23.13
2018-01-11T03:20:31.205Z,21.65
2018-01-11T03:22:59.762Z,17.60
2018-01-11T03:25:27.416Z,18.58
2018-01-11T03:27:55.028Z,14.20
2018-01-11T03:30:22.926Z,12.07
2018-01-11T03:32:50.735Z,11.68
2018-01-11T03:35:18.483Z,10.18
2018-01-11T03:37:46.098Z,15.27
2018-01-11T03:40:13.694Z,13.55
2018-01-11T03:42:41.294Z,22.08
2018-01-11T03:45:08.911Z,17.40
2018-01-11T03:47:36.675Z,14.77
2018-01-11T03:50:04.216Z,13.88
2018-01-11T03:52:31.798Z,12.93
2018-01-11T03:54:59.481Z,16.62
2018-01-11T03:57:27.125Z,10.10
2018-01-11T03:59:54.820Z,13.73
2018-01-11T04:02:22.425Z,17.50
2018-01-11T04:04:54.090Z,13.27
2018-01-11T04:07:22.103Z,14.73
2018-01-11T04:09:50.829Z,17.20
2018-01-11T04:12:22.698Z,16.73
2018-01-11T04:14:51.227Z,19.20
2018-01-11T04:17:21.686Z,16.73
2018-01-11T04:19:49.588Z,19.87
2018-01-11T04:22:17.662Z,21.10
2018-01-11T04:24:46.234Z,35.78
2018-01-11T04:27:13.996Z,33.78
2018-01-11T04:29:41.659Z,28.43
2018-01-11T04:32:09.520Z,27.75
2018-01-11T04:34:37.700Z,31.90
2018-01-11T04:37:05.514Z,41.55
2018-01-11T04:39:33.507Z,37.70
2018-01-11T04:42:02.019Z,40.93
2018-01-11T04:44:30.869Z,53.97
2018-01-11T04:46:58.707Z,45.10
2018-01-11T04:49:26.399Z,37.63
2018-01-11T04:51:54.061Z,36.47
2018-01-11T04:54:21.796Z,31.00
2018-01-11T04:56:49.689Z,39.28
2018-01-11T04:59:17.301Z,29.30
2018-01-11T05:01:46.059Z,32.53
2018-01-11T05:04:14.872Z,37.75
2018-01-11T05:06:42.506Z,28.07
2018-01-11T05:09:10.528Z,27.05
2018-01-11T05:11:38.306Z,36.35
2018-01-11T05:14:06.152Z,30.10
2018-01-11T05:16:34.300Z,29.92
2018-01-11T05:19:01.891Z,32.83
2018-01-11T05:21:29.600Z,33.00
2018-01-11T05:23:57.232Z,30.60
2018-01-11T05:26:25.026Z,29.98
2018-01-11T05:28:53.165Z,30.73
2018-01-11T05:31:20.759Z,24.10
2018-01-11T05:33:48.602Z,21.95
2018-01-11T05:36:16.935Z,23.92
2018-01-11T05:38:44.514Z,21.73
2018-01-11T05:41:12.097Z,16.30
2018-01-11T05:43:39.683Z,22.83
2018-01-11T05:46:07.457Z,16.30
2018-01-11T05:48:35.052Z,28.83
2018-01-11T05:51:02.639Z,24.30
2018-01-11T05:53:30.350Z,28.87
2018-01-11T05:55:57.943Z,35.27
2018-01-11T05:58:25.588Z,22.62
2018-01-11T06:00:53.183Z,27.83
2018-01-11T06:03:20.730Z,23.53
2018-01-11T06:05:48.291Z,25.63
2018-01-11T06:08:15.950Z,20.80
2018-01-11T06:10:43.749Z,24.63
2018-01-11T06:13:11.307Z,24.47
2018-01-11T06:15:38.949Z,22.17
2018-01-11T06:18:07.486Z,19.65
2018-01-11T06:20:35.105Z,21.80
2018-01-11T06:23:02.706Z,18.73
2018-01-11T06:25:30.308Z,20.77
2018-01-11T06:27:57.895Z,19.60
2018-01-11T06:30:25.492Z,20.17
2018-01-11T06:32:53.078Z,25.43
2018-01-11T06:35:20.667Z,22.20
2018-01-11T06:37:48.360Z,20.27
2018-01-11T06:40:15.901Z,22.57
2018-01-11T06:42:44.134Z,23.37
2018-01-11T06:45:11.758Z,20.20
2018-01-11T06:47:39.409Z,27.60
2018-01-11T06:50:06.958Z,17.53
2018-01-11T06:52:34.581Z,20.93
2018-01-11T06:55:02.504Z,17.67
2018-01-11T06:57:30.055Z,16.90
2018-01-11T06:59:57.776Z,13.33
2018-01-11T07:02:25.454Z,17.63
2018-01-11T07:04:53.222Z,17.53
2018-01-11T07:07:20.975Z,19.00
2018-01-11T07:09:48.564Z,20.83
2018-01-11T07:12:16.194Z,19.47
2018-01-11T07:14:43.955Z,21.70
2018-01-11T07:17:11.640Z,23.43
2018-01-11T07:19:39.222Z,26.33
2018-01-11T07:22:06.990Z,28.37
2018-01-11T07:24:34.614Z,26.00
2018-01-11T07:27:02.178Z,29.13
2018-01-11T07:29:29.781Z,41.70
2018-01-11T07:31:58.375Z,38.43
2018-01-11T07:34:26.039Z,34.67
2018-01-11T07:36:53.802Z,29.53
2018-01-11T07:39:21.422Z,30.33
2018-01-11T07:41:48.982Z,29.70
2018-01-11T07:44:16.550Z,27.43
2018-01-11T07:46:44.153Z,21.70
2018-01-11T07:49:11.722Z,20.23
2018-01-11T07:51:39.323Z,30.43
2018-01-11T07:54:06.906Z,22.13
2018-01-11T07:56:34.446Z,18.47
2018-01-11T07:59:02.010Z,19.03
2018-01-11T08:01:29.734Z,20.50
2018-01-11T08:03:57.522Z,17.30
2018-01-11T08:06:25.274Z,19.67
2018-01-11T08:08:52.908Z,19.07
2018-01-11T08:11:20.512Z,17.47
2018-01-11T08:13:48.107Z,13.83
2018-01-11T08:16:15.726Z,21.80
2018-01-11T08:18:43.495Z,15.63
2018-01-11T08:21:11.141Z,21.00
2018-01-11T08:23:38.797Z,18.13
2018-01-11T08:26:06.399Z,26.13
2018-01-11T08:28:33.955Z,22.33
2018-01-11T08:31:01.578Z,68.00
2018-01-11T08:33:29.827Z,68.27
2018-01-11T08:35:57.458Z,61.37
2018-01-11T08:38:25.070Z,83.23
2018-01-11T08:40:52.641Z,149.77
2018-01-11T08:43:20.234Z,91.57
2018-01-11T08:45:47.841Z,73.20
2018-01-11T08:48:15.450Z,61.83
2018-01-11T08:50:43.033Z,36.50
2018-01-11T08:53:10.625Z,39.40
2018-01-11T08:55:38.193Z,37.80
2018-01-11T08:58:05.762Z,35.37
2018-01-11T09:00:33.452Z,30.97
2018-01-11T09:03:01.047Z,24.90
2018-01-11T09:05:28.615Z,26.70
2018-01-11T09:07:56.189Z,29.13
2018-01-11T09:10:23.725Z,37.47
2018-01-11T09:12:51.259Z,26.07
2018-01-11T09:15:18.880Z,32.20
2018-01-11T09:17:46.450Z,27.03
2018-01-11T09:20:14.021Z,31.43
2018-01-11T09:22:41.611Z,31.40
2018-01-11T09:25:09.912Z,34.27
2018-01-11T09:27:38.492Z,30.33
2018-01-11T09:30:06.939Z,28.07
2018-01-11T09:32:35.070Z,29.10
2018-01-11T09:35:02.620Z,20.43
2018-01-11T09:37:30.230Z,26.40
2018-01-11T09:39:57.796Z,28.37
2018-01-11T09:42:25.370Z,22.07
2018-01-11T09:44:52.993Z,17.67
2018-01-11T09:47:20.864Z,26.00
2018-01-11T09:49:48.470Z,28.30
2018-01-11T09:52:16.043Z,22.97
2018-01-11T09:54:43.614Z,23.43
2018-01-11T09:57:11.263Z,24.03
2018-01-11T09:59:38.942Z,21.30
2018-01-11T10:02:06.548Z,20.53
2018-01-11T10:04:34.327Z,20.77
2018-01-11T10:07:01.883Z,31.57
2018-01-11T10:09:29.515Z,21.70
2018-01-11T10:11:57.082Z,27.10
2018-01-11T10:14:24.622Z,28.07
2018-01-11T10:16:52.296Z,24.83
2018-01-11T10:19:19.866Z,32.90
2018-01-11T10:21:47.519Z,27.50
2018-01-11T10:24:15.222Z,20.27
2018-01-11T10:26:43.023Z,17.50
2018-01-11T10:29:10.821Z,16.50
2018-01-11T10:31:39.214Z,28.27
2018-01-11T10:34:06.811Z,11.67
2018-01-11T10:36:34.372Z,16.17
2018-01-11T10:39:01.987Z,16.57
2018-01-11T10:41:29.618Z,19.47
2018-01-11T10:43:57.182Z,13.90
2018-01-11T10:46:24.905Z,13.03
2018-01-11T10:48:52.487Z,9.80
2018-01-11T10:51:20.076Z,9.82
2018-01-11T10:53:47.958Z,13.33
2018-01-11T10:56:15.912Z,16.70
2018-01-11T10:58:43.554Z,8.90
2018-01-11T11:01:16.800Z,10.50
2018-01-11T11:03:44.583Z,20.93
2018-01-11T11:06:12.222Z,14.00
2018-01-11T11:08:39.952Z,10.93
2018-01-11T11:11:07.546Z,17.07
2018-01-11T11:13:35.104Z,10.80
2018-01-11T11:16:02.784Z,10.70
2018-01-11T11:18:30.334Z,26.90
2018-01-11T11:20:57.980Z,7.30
2018-01-11T11:23:25.684Z,16.37
2018-01-11T11:25:53.288Z,12.13
2018-01-11T11:28:20.955Z,10.20
2018-01-11T11:30:48.620Z,8.23
2018-01-11T11:33:16.156Z,11.10
2018-01-11T11:35:43.761Z,8.63
2018-01-11T11:38:11.391Z,11.87
2018-01-11T11:40:38.962Z,9.43
2018-01-11T11:43:06.565Z,8.83
2018-01-11T11:45:34.143Z,11.10
2018-01-11T11:48:01.702Z,13.47
2018-01-11T11:50:29.255Z,11.50
2018-01-11T11:52:56.858Z,14.23
2018-01-11T11:55:24.668Z,16.50
2018-01-11T11:57:52.483Z,13.07
2018-01-11T12:00:20.148Z,16.30
2018-01-11T12:02:48.419Z,12.83
2018-01-11T12:05:15.985Z,13.17
2018-01-11T12:07:43.637Z,14.30
2018-01-11T12:10:11.410Z,12.03
2018-01-11T12:12:38.297Z,13.07
2018-01-11T12:15:07.650Z,17.77
2018-01-11T12:17:35.293Z,15.60
2018-01-11T12:20:02.960Z,22.93
2018-01-11T12:22:31.089Z,19.83
2018-01-11T12:25:00.182Z,15.67
2018-01-11T12:27:28.078Z,14.50
2018-01-11T12:29:55.764Z,19.73
2018-01-11T12:32:23.367Z,13.60
2018-01-11T12:34:50.961Z,12.10
2018-01-11T12:37:18.502Z,12.53
2018-01-11T12:39:46.075Z,9.60
2018-01-11T12:42:13.837Z,11.43
2018-01-11T12:44:41.381Z,14.20
2018-01-11T12:47:09.055Z,11.87
2018-01-11T12:49:36.681Z,12.83
2018-01-11T12:52:04.233Z,12.30
2018-01-11T12:54:31.915Z,16.93
2018-01-11T12:56:59.538Z,10.27
2018-01-11T12:59:27.130Z,11.70
2018-01-11T13:01:54.851Z,14.60
2018-01-11T13:04:22.621Z,16.63
2018-01-11T13:06:50.229Z,16.33
2018-01-11T13:09:17.918Z,20.43
2018-01-11T13:11:45.478Z,13.40
2018-01-11T13:14:13.277Z,15.53
2018-01-11T13:16:40.930Z,16.80
2018-01-11T13:19:09.275Z,17.40
2018-01-11T13:21:37.385Z,15.53
2018-01-11T13:24:05.151Z,16.13
2018-01-11T13:26:32.756Z,9.63
2018-01-11T13:29:00.657Z,12.83
2018-01-11T13:31:28.260Z,13.23
2018-01-11T13:33:56.441Z,12.50
2018-01-11T13:36:24.065Z,12.07
2018-01-11T13:38:51.857Z,14.73
2018-01-11T13:41:20.338Z,15.93
2018-01-11T13:43:49.017Z,10.73
2018-01-11T13:46:16.656Z,16.53
2018-01-11T13:48:44.274Z,14.43
2018-01-11T13:51:11.890Z,18.07
2018-01-11T13:53:39.858Z,13.67
2018-01-11T13:56:07.408Z,16.00
2018-01-11T13:58:34.949Z,13.47
2018-01-11T14:01:02.589Z,20.00
2018-01-11T14:03:30.224Z,15.97
2018-01-11T14:05:57.790Z,20.10
2018-01-11T14:08:25.378Z,15.87
2018-01-11T14:10:53.113Z,18.13
2018-01-11T14:13:20.692Z,19.30
2018-01-11T14:15:48.341Z,16.73
2018-01-11T14:18:15.908Z,18.90
2018-01-11T14:20:43.474Z,16.10
2018-01-11T14:23:11.077Z,11.20
2018-01-11T14:25:38.706Z,18.90
2018-01-11T14:28:06.633Z,18.83
2018-01-11T14:30:34.280Z,17.60
2018-01-11T14:33:01.899Z,17.50
2018-01-11T14:35:29.541Z,19.20
2018-01-11T14:37:57.212Z,21.60
2018-01-11T14:40:24.862Z,14.90
2018-01-11T14:42:53.234Z,23.23
2018-01-11T14:45:21.482Z,20.50
2018-01-11T14:47:49.245Z,23.60
2018-01-11T14:50:16.873Z,24.00
2018-01-11T14:52:45.098Z,31.37
2018-01-11T14:55:12.854Z,35.37
2018-01-11T14:57:42.716Z,44.53
2018-01-11T15:00:10.438Z,35.37
2018-01-11T15:02:38.024Z,39.77
2018-01-11T15:05:05.657Z,42.33
2018-01-11T15:07:33.480Z,37.97
2018-01-11T15:10:01.673Z,43.10
2018-01-11T15:12:29.431Z,38.70
2018-01-11T15:14:57.142Z,44.97
2018-01-11T15:17:24.719Z,41.87
2018-01-11T15:19:52.313Z,50.53
2018-01-11T15:22:20.045Z,53.37
2018-01-11T15:24:47.638Z,53.20
2018-01-11T15:27:15.262Z,58.37
2018-01-11T15:29:43.710Z,71.70
2018-01-11T15:32:11.396Z,69.87
2018-01-11T15:34:38.999Z,76.77
2018-01-11T15:37:07.478Z,81.70
2018-01-11T15:39:35.142Z,76.67
2018-01-11T15:42:03.693Z,86.30
2018-01-11T15:44:31.250Z,79.27
2018-01-11T15:46:58.857Z,91.43
2018-01-11T15:49:26.714Z,80.73
2018-01-11T15:51:55.309Z,86.40
2018-01-11T15:54:23.061Z,81.17
2018-01-11T15:56:50.732Z,92.50
2018-01-11T15:59:19.292Z,92.77
2018-01-11T16:01:47.056Z,81.10
2018-01-11T16:04:14.843Z,90.00
2018-01-11T16:06:42.500Z,101.37
2018-01-11T16:09:10.212Z,98.20
2018-01-11T16:11:37.911Z,95.80
2018-01-11T16:14:05.622Z,111.43
2018-01-11T16:16:33.342Z,102.23
2018-01-11T16:19:01.381Z,122.10
2018-01-11T16:21:29.238Z,110.67
2018-01-11T16:23:56.895Z,111.30
2018-01-11T16:26:24.866Z,128.97
2018-01-11T16:28:53.092Z,113.97
2018-01-11T16:31:20.800Z,98.30
2018-01-11T16:33:48.407Z,90.50
2018-01-11T16:36:16.384Z,100.60
2018-01-11T16:38:44.572Z,102.23
2018-01-11T16:41:12.198Z,97.63
2018-01-11T16:43:39.891Z,105.23
2018-01-11T16:46:07.527Z,93.60
2018-01-11T16:52:01.127Z,81.40
2018-01-11T16:54:28.765Z,63.67
2018-01-11T16:56:56.434Z,56.10
2018-01-11T16:59:24.578Z,71.20
2018-01-11T17:01:52.286Z,52.83
2018-01-11T17:04:20.178Z,57.93
2018-01-11T17:06:47.812Z,59.33
2018-01-11T17:09:16.035Z,53.83
2018-01-11T17:11:43.636Z,54.03
2018-01-11T17:14:11.375Z,44.70
2018-01-11T17:16:39.048Z,44.83
2018-01-11T17:19:06.764Z,50.53
2018-01-11T17:21:34.393Z,57.87
2018-01-11T17:24:02.064Z,51.07
2018-01-11T17:26:29.773Z,48.47
2018-01-11T17:28:59.374Z,59.80
2018-01-11T17:31:27.285Z,70.60
2018-01-11T17:33:55.411Z,64.40
2018-01-11T17:36:23.043Z,74.80
2018-01-11T17:38:52.024Z,73.10
2018-01-11T17:41:19.676Z,83.87
2018-01-11T17:43:47.375Z,80.43
2018-01-11T17:46:15.676Z,74.33
2018-01-11T17:48:43.503Z,76.27
2018-01-11T17:51:11.806Z,80.23
2018-01-11T17:53:39.628Z,80.13
2018-01-11T17:56:07.270Z,77.80
2018-01-11T17:58:34.811Z,78.03
2018-01-11T18:01:03.241Z,78.13
2018-01-11T18:03:30.901Z,86.03
2018-01-11T18:05:58.467Z,71.27
2018-01-11T18:08:26.920Z,72.50
2018-01-11T18:10:54.527Z,68.63
2018-01-11T18:13:22.160Z,72.03
2018-01-11T18:15:50.011Z,79.53
2018-01-11T18:18:17.930Z,66.97
2018-01-11T18:20:46.074Z,82.40
2018-01-11T18:23:13.875Z,90.40
2018-01-11T18:25:42.652Z,78.97
2018-01-11T18:28:10.772Z,86.67
2018-01-11T18:30:38.644Z,74.17
2018-01-11T18:33:06.251Z,56.63
2018-01-11T18:35:33.944Z,70.87
2018-01-11T18:38:01.676Z,67.40
2018-01-11T18:40:29.481Z,73.50
2018-01-11T18:42:57.066Z,66.63
2018-01-11T18:45:24.697Z,64.37
2018-01-11T18:47:52.347Z,63.40
2018-01-11T18:50:19.906Z,58.17
2018-01-11T18:52:47.590Z,53.90
2018-01-11T18:55:15.190Z,56.00
2018-01-11T18:57:42.905Z,62.77
2018-01-11T19:00:11.806Z,62.50
2018-01-11T19:02:40.241Z,68.07
2018-01-11T19:05:07.985Z,63.03
2018-01-11T19:07:35.723Z,81.00
2018-01-11T19:10:03.388Z,67.97
2018-01-11T19:12:31.062Z,61.43
2018-01-11T19:15:00.039Z,54.67
2018-01-11T19:17:28.480Z,61.90
2018-01-11T19:19:56.060Z,73.33
2018-01-11T19:22:23.712Z,69.40
2018-01-11T19:24:51.583Z,63.57
2018-01-11T19:27:19.180Z,52.73
2018-01-11T19:29:47.662Z,44.50
2018-01-11T19:32:16.708Z,41.70
2018-01-11T19:34:44.346Z,40.73
2018-01-11T19:37:11.979Z,41.27
2018-01-11T19:39:39.613Z,41.47
2018-01-11T19:42:07.915Z,36.40
2018-01-11T19:44:35.541Z,44.37
2018-01-11T19:47:03.158Z,49.20
2018-01-11T19:49:31.584Z,42.90
2018-01-11T19:51:59.748Z,43.87
2018-01-11T19:54:28.007Z,44.03
2018-01-11T19:56:57.374Z,44.83
2018-01-11T19:59:25.012Z,48.03
2018-01-11T20:01:52.583Z,56.97
2018-01-11T20:04:20.222Z,64.80
2018-01-11T20:06:47.804Z,66.13
2018-01-11T20:09:16.289Z,70.23
2018-01-11T20:11:43.923Z,78.53
2018-01-11T20:14:11.509Z,78.43
2018-01-11T20:16:40.150Z,68.90
2018-01-11T20:19:07.883Z,74.73
2018-01-11T20:21:35.433Z,56.30
2018-01-11T20:24:03.056Z,60.73
2018-01-11T20:26:30.623Z,68.40
2018-01-11T20:28:58.316Z,69.30
2018-01-11T20:31:26.327Z,55.50
2018-01-11T20:33:53.938Z,61.27
2018-01-11T20:36:22.444Z,71.17
2018-01-11T20:38:51.128Z,65.13
2018-01-11T20:41:18.705Z,62.07
2018-01-11T20:43:47.062Z,66.07
2018-01-11T20:46:14.634Z,57.00
2018-01-11T20:48:42.901Z,57.43
2018-01-11T20:51:10.667Z,81.80
2018-01-11T20:53:38.384Z,82.00
2018-01-11T20:56:05.979Z,89.83
2018-01-11T20:58:33.630Z,79.63
2018-01-11T21:01:01.908Z,89.23
2018-01-11T21:03:29.676Z,73.67
2018-01-11T21:05:57.264Z,84.10
2018-01-11T21:08:25.235Z,93.70
2018-01-11T21:10:52.998Z,78.70
2018-01-11T21:13:20.601Z,87.17
2018-01-11T21:15:48.437Z,86.37
2018-01-11T21:18:16.779Z,83.70
2018-01-11T21:20:44.588Z,78.70
2018-01-11T21:23:12.185Z,73.97
2018-01-11T21:25:39.949Z,66.53
2018-01-11T21:28:07.488Z,57.97
2018-01-11T21:30:35.132Z,48.67
2018-01-11T21:33:03.405Z,46.57
2018-01-11T21:35:31.004Z,45.17
2018-01-11T21:37:58.619Z,47.10
2018-01-11T21:40:26.224Z,40.90
2018-01-11T21:42:53.791Z,48.00
2018-01-11T21:45:21.425Z,45.53
2018-01-11T21:47:49.061Z,54.20
2018-01-11T21:50:16.645Z,59.23
2018-01-11T21:52:44.247Z,58.33
2018-01-11T21:55:11.832Z,58.50
2018-01-11T21:57:39.466Z,59.80
2018-01-11T22:00:07.883Z,70.80
2018-01-11T22:02:35.453Z,72.73
2018-01-11T22:05:03.199Z,68.27
2018-01-11T22:07:30.820Z,77.67
2018-01-11T22:09:58.354Z,77.37
2018-01-11T22:12:25.931Z,74.67
2018-01-11T22:14:53.588Z,73.43
2018-01-11T22:17:21.504Z,63.77
2018-01-11T22:19:49.100Z,60.20
2018-01-11T22:22:16.696Z,63.90
2018-01-11T22:24:44.472Z,70.33
2018-01-11T22:27:12.060Z,67.20
2018-01-11T22:29:39.636Z,61.90
2018-01-11T22:32:07.284Z,55.67
2018-01-11T22:34:35.097Z,56.97
2018-01-11T22:37:02.854Z,46.70
2018-01-11T22:39:30.426Z,33.67
2018-01-11T22:41:58.205Z,39.20
2018-01-11T22:44:25.786Z,35.93
2018-01-11T22:46:53.374Z,44.80
2018-01-11T22:49:21.259Z,39.80
2018-01-11T22:51:48.742Z,45.97
2018-01-11T22:54:16.329Z,33.33
2018-01-11T22:56:43.897Z,40.43
2018-01-11T22:59:11.479Z,33.20
2018-01-11T23:01:39.365Z,31.00
2018-01-11T23:04:06.929Z,26.03
2018-01-11T23:06:34.504Z,25.90
2018-01-11T23:09:02.287Z,20.98
2018-01-11T23:11:35.374Z,22.17
2018-01-11T23:14:02.936Z,21.20
2018-01-11T23:16:30.472Z,21.83
2018-01-11T23:18:58.335Z,24.40
2018-01-11T23:21:26.440Z,21.97
2018-01-11T23:23:54.205Z,25.23
2018-01-11T23:26:21.764Z,26.87
2018-01-11T23:28:49.483Z,23.17
2018-01-11T23:31:17.080Z,30.57
2018-01-11T23:33:44.859Z,27.52
2018-01-11T23:36:12.616Z,27.30
2018-01-11T23:38:40.256Z,27.43
2018-01-11T23:41:07.865Z,26.67
2018-01-11T23:43:35.897Z,25.80
2018-01-11T23:46:03.468Z,26.50
2018-01-11T23:48:31.253Z,30.30
2018-01-11T23:50:58.939Z,26.83
2018-01-11T23:53:26.528Z,26.13
2018-01-11T23:55:54.319Z,24.83
2018-01-11T23:58:22.217Z,28.17
